createdAt,value
2019-05-20T00:00:43.652Z,101083.56
2019-05-20T00:03:15.939Z,101083.64
2019-05-20T00:05:49.287Z,101083.55
2019-05-20T00:08:20.990Z,101086.05
2019-05-20T00:10:52.750Z,101083.55
2019-05-20T00:13:24.504Z,101079.87
2019-05-20T00:15:56.063Z,101081.16
2019-05-20T00:18:27.831Z,101089.77
2019-05-20T00:20:59.369Z,101083.83
2019-05-20T00:23:31.845Z,101083.81
2019-05-20T00:26:03.705Z,101092.77
2019-05-20T00:28:35.366Z,101094.78
2019-05-20T00:31:08.760Z,101095.51
2019-05-20T00:33:40.311Z,101096.09
2019-05-20T00:36:12.275Z,101097.50
2019-05-20T00:38:45.365Z,101101.19
2019-05-20T00:41:18.349Z,101102.61
2019-05-20T00:43:50.207Z,101106.59
2019-05-20T00:46:21.756Z,101109.06
2019-05-20T00:48:53.519Z,101107.70
2019-05-20T00:51:25.274Z,101111.47
2019-05-20T00:53:57.440Z,101114.95
2019-05-20T00:56:30.021Z,101107.84
2019-05-20T00:59:01.835Z,101117.27
2019-05-20T01:01:33.234Z,101112.76
2019-05-20T01:04:04.683Z,101117.20
2019-05-20T01:06:37.150Z,101121.52
2019-05-20T01:09:08.905Z,101120.73
2019-05-20T01:11:40.972Z,101118.98
2019-05-20T01:14:12.843Z,101127.02
2019-05-20T01:16:44.392Z,101131.72
2019-05-20T01:19:16.157Z,101124.16
2019-05-20T01:21:48.008Z,101124.31
2019-05-20T01:24:19.564Z,101132.43
2019-05-20T01:26:51.423Z,101132.95
2019-05-20T01:29:22.974Z,101125.21
2019-05-20T01:31:55.454Z,101129.32
2019-05-20T01:34:27.105Z,101130.66
2019-05-20T01:36:58.970Z,101127.47
2019-05-20T01:39:30.623Z,101132.36
2019-05-20T01:42:02.379Z,101129.84
2019-05-20T01:44:33.825Z,101129.63
2019-05-20T01:47:05.491Z,101129.23
2019-05-20T01:49:37.247Z,101124.50
2019-05-20T01:52:08.802Z,101127.96
2019-05-20T01:54:40.959Z,101126.87
2019-05-20T01:57:12.513Z,101128.80
2019-05-20T01:59:43.864Z,101128.20
2019-05-20T02:02:15.721Z,101129.38
2019-05-20T02:04:47.272Z,101124.67
2019-05-20T02:07:19.131Z,101125.53
2019-05-20T02:09:50.585Z,101125.06
2019-05-20T02:12:22.338Z,101136.41
2019-05-20T02:14:58.711Z,101139.31
2019-05-20T02:17:30.215Z,101142.45
2019-05-20T02:20:01.925Z,101150.58
2019-05-20T02:22:33.779Z,101153.17
2019-05-20T02:25:05.941Z,101161.07
2019-05-20T02:27:37.697Z,101165.15
2019-05-20T02:30:10.084Z,101164.44
2019-05-20T02:32:44.388Z,101165.70
2019-05-20T02:35:16.153Z,101170.56
2019-05-20T02:37:47.807Z,101167.42
2019-05-20T02:40:19.454Z,101167.89
2019-05-20T02:42:51.113Z,101169.15
2019-05-20T02:45:22.465Z,101171.42
2019-05-20T02:47:54.329Z,101174.88
2019-05-20T02:50:26.008Z,101175.55
2019-05-20T02:52:57.834Z,101178.27
2019-05-20T02:55:29.916Z,101178.84
2019-05-20T02:58:01.603Z,101174.53
2019-05-20T03:00:33.329Z,101173.88
2019-05-20T03:03:04.969Z,101176.50
2019-05-20T03:05:36.856Z,101170.94
2019-05-20T03:08:08.255Z,101171.76
2019-05-20T03:10:40.142Z,101172.90
2019-05-20T03:13:12.199Z,101180.95
2019-05-20T03:15:44.175Z,101176.50
2019-05-20T03:18:16.034Z,101180.46
2019-05-20T03:20:47.791Z,101182.64
2019-05-20T03:23:19.539Z,101177.80
2019-05-20T03:25:51.410Z,101182.47
2019-05-20T03:28:23.466Z,101180.42
2019-05-20T03:30:56.296Z,101178.61
2019-05-20T03:33:28.138Z,101177.03
2019-05-20T03:35:59.585Z,101179.17
2019-05-20T03:38:31.017Z,101181.19
2019-05-20T03:41:02.670Z,101182.17
2019-05-20T03:43:34.528Z,101189.53
2019-05-20T03:46:06.287Z,101186.78
2019-05-20T03:48:38.037Z,101189.89
2019-05-20T03:51:09.484Z,101186.47
2019-05-20T03:53:41.142Z,101192.48
2019-05-20T03:56:13.219Z,101194.97
2019-05-20T03:58:44.775Z,101200.19
2019-05-20T04:01:16.495Z,101206.38
2019-05-20T04:03:48.190Z,101207.81
2019-05-20T04:06:20.039Z,101205.83
2019-05-20T04:08:51.702Z,101206.95
2019-05-20T04:11:23.468Z,101201.16
2019-05-20T04:13:55.215Z,101204.37
2019-05-20T04:16:27.081Z,101206.89
2019-05-20T04:18:58.955Z,101214.84
2019-05-20T04:21:30.583Z,101218.36
2019-05-20T04:24:02.503Z,101211.12
2019-05-20T04:26:34.113Z,101212.27
2019-05-20T04:29:05.775Z,101215.77
2019-05-20T04:31:37.409Z,101221.50
2019-05-20T04:34:09.061Z,101219.95
2019-05-20T04:36:40.921Z,101221.62
2019-05-20T04:39:12.574Z,101221.71
2019-05-20T04:41:44.448Z,101227.28
2019-05-20T04:44:16.409Z,101225.61
2019-05-20T04:46:47.972Z,101227.93
2019-05-20T04:49:19.616Z,101235.12
2019-05-20T04:51:51.982Z,101235.01
2019-05-20T04:54:23.642Z,101234.61
2019-05-20T04:56:55.598Z,101235.50
2019-05-20T04:59:27.187Z,101240.79
2019-05-20T05:01:58.706Z,101249.06
2019-05-20T05:04:30.475Z,101256.31
2019-05-20T05:07:03.340Z,101247.23
2019-05-20T05:09:35.615Z,101252.19
2019-05-20T05:12:07.178Z,101259.53
2019-05-20T05:14:38.925Z,101261.55
2019-05-20T05:17:10.271Z,101266.98
2019-05-20T05:19:43.363Z,101257.98
2019-05-20T05:22:15.130Z,101260.13
2019-05-20T05:24:47.094Z,101258.01
2019-05-20T05:27:19.065Z,101258.01
2019-05-20T05:29:52.142Z,101279.30
2019-05-20T05:32:43.009Z,101281.05
2019-05-20T05:35:15.482Z,101276.05
2019-05-20T05:37:47.541Z,101275.78
2019-05-20T05:40:19.587Z,101279.38
2019-05-20T05:42:52.851Z,101283.09
2019-05-20T05:45:34.066Z,101285.90
2019-05-20T05:48:05.472Z,101288.48
2019-05-20T05:50:37.423Z,101292.83
2019-05-20T05:53:08.891Z,101299.20
2019-05-20T05:55:40.538Z,101297.69
2019-05-20T05:58:14.960Z,101287.46
2019-05-20T06:00:49.689Z,101300.80
2019-05-20T06:03:21.442Z,101296.27
2019-05-20T06:06:10.348Z,101292.99
2019-05-20T06:08:27.306Z,101304.64
2019-05-20T06:10:59.270Z,101304.97
2019-05-20T06:13:30.824Z,101303.11
2019-05-20T06:16:02.670Z,101307.03
2019-05-20T06:18:34.134Z,101307.53
2019-05-20T06:21:06.075Z,101308.91
2019-05-20T06:23:37.955Z,101307.09
2019-05-20T06:26:09.717Z,101310.71
2019-05-20T06:28:41.375Z,101311.05
2019-05-20T06:31:12.920Z,101306.64
2019-05-20T06:33:44.798Z,101313.78
2019-05-20T06:36:26.414Z,101308.74
2019-05-20T06:38:51.366Z,101303.98
2019-05-20T06:41:23.340Z,101311.48
2019-05-20T06:43:54.775Z,101312.86
2019-05-20T06:46:38.623Z,101315.09
2019-05-20T06:49:10.367Z,101315.03
2019-05-20T06:51:42.235Z,101315.36
2019-05-20T06:54:13.789Z,101316.53
2019-05-20T06:56:46.367Z,101315.17
2019-05-20T06:59:18.387Z,101316.67
2019-05-20T07:01:50.302Z,101325.88
2019-05-20T07:04:22.427Z,101311.54
2019-05-20T07:06:55.045Z,101313.45
2019-05-20T07:09:26.822Z,101323.98
2019-05-20T07:11:58.260Z,101319.13
2019-05-20T07:14:29.966Z,101316.17
2019-05-20T07:17:01.670Z,101314.44
2019-05-20T07:19:33.112Z,101322.27
2019-05-20T07:22:04.849Z,101326.13
2019-05-20T07:24:36.342Z,101328.35
2019-05-20T07:27:07.880Z,101329.11
2019-05-20T07:29:39.465Z,101332.95
2019-05-20T07:32:10.902Z,101331.87
2019-05-20T07:34:42.541Z,101335.56
2019-05-20T07:37:13.887Z,101330.56
2019-05-20T07:39:45.732Z,101331.38
2019-05-20T07:42:17.709Z,101329.78
2019-05-20T07:44:49.276Z,101332.38
2019-05-20T07:47:20.813Z,101330.22
2019-05-20T07:49:52.682Z,101330.20
2019-05-20T07:52:25.551Z,101319.25
2019-05-20T07:54:57.207Z,101324.28
2019-05-20T07:57:30.079Z,101310.95
2019-05-20T08:00:01.991Z,101319.56
2019-05-20T08:02:39.134Z,101313.41
2019-05-20T08:05:10.993Z,101304.58
2019-05-20T08:07:52.093Z,101311.61
2019-05-20T08:10:19.237Z,101306.64
2019-05-20T08:12:50.777Z,101307.41
2019-05-20T08:15:22.330Z,101306.25
2019-05-20T08:17:54.446Z,101301.79
2019-05-20T08:20:29.227Z,101307.53
2019-05-20T08:23:01.186Z,101294.09
2019-05-20T08:25:32.538Z,101295.31
2019-05-20T08:28:22.466Z,101295.36
2019-05-20T08:30:54.196Z,101291.04
2019-05-20T08:33:25.837Z,101288.91
2019-05-20T08:35:57.839Z,101285.05
2019-05-20T08:38:29.748Z,101278.25
2019-05-20T08:41:01.611Z,101271.65
2019-05-20T08:43:33.378Z,101279.42
2019-05-20T08:46:28.172Z,101291.84
2019-05-20T08:48:59.929Z,101289.43
2019-05-20T08:51:31.388Z,101287.36
2019-05-20T08:54:19.017Z,101279.03
2019-05-20T08:56:50.363Z,101268.07
2019-05-20T08:59:23.653Z,101265.78
2019-05-20T09:02:10.357Z,101264.61
2019-05-20T09:04:42.018Z,101268.02
2019-05-20T09:07:13.564Z,101264.77
2019-05-20T09:09:45.507Z,101259.49
2019-05-20T09:12:35.441Z,101263.01
2019-05-20T09:15:09.447Z,101261.47
2019-05-20T09:17:41.207Z,101260.75
2019-05-20T09:20:14.097Z,101267.78
2019-05-20T09:22:45.636Z,101263.14
2019-05-20T09:25:19.073Z,101257.19
2019-05-20T09:27:50.456Z,101252.59
2019-05-20T09:30:22.769Z,101265.33
2019-05-20T09:32:57.491Z,101265.11
2019-05-20T09:35:33.515Z,101262.48
2019-05-20T09:38:18.112Z,101263.65
2019-05-20T09:40:41.774Z,101271.34
2019-05-20T09:43:14.772Z,101260.20
2019-05-20T09:46:07.970Z,101262.72
2019-05-20T09:48:39.659Z,101263.40
2019-05-20T09:51:13.971Z,101265.38
2019-05-20T09:53:45.423Z,101273.70
2019-05-20T09:56:17.198Z,101269.52
2019-05-20T09:58:57.788Z,101270.44
2019-05-20T10:01:29.595Z,101261.78
2019-05-20T10:04:01.865Z,101252.27
2019-05-20T10:06:33.333Z,101249.67
2019-05-20T10:09:07.009Z,101248.13
2019-05-20T10:11:38.683Z,101250.38
2019-05-20T10:14:10.129Z,101261.08
2019-05-20T10:16:41.990Z,101243.91
2019-05-20T10:19:13.539Z,101238.60
2019-05-20T10:21:45.096Z,101242.22
2019-05-20T10:24:16.461Z,101240.32
2019-05-20T10:26:48.105Z,101228.02
2019-05-20T10:29:19.855Z,101228.75
2019-05-20T10:31:51.815Z,101236.66
2019-05-20T10:34:23.594Z,101236.44
2019-05-20T10:36:55.548Z,101232.23
2019-05-20T10:39:27.204Z,101236.04
2019-05-20T10:42:06.124Z,101237.56
2019-05-20T10:44:41.542Z,101226.16
2019-05-20T10:47:30.631Z,101230.09
2019-05-20T10:50:23.830Z,101230.06
2019-05-20T10:52:55.299Z,101229.53
2019-05-20T10:55:26.784Z,101217.68
2019-05-20T10:57:58.667Z,101235.98
2019-05-20T11:01:01.027Z,101230.52
2019-05-20T11:03:16.590Z,101229.16
2019-05-20T11:05:48.175Z,101229.87
2019-05-20T11:08:19.702Z,101233.13
2019-05-20T11:10:51.268Z,101236.20
2019-05-20T11:13:22.867Z,101231.83
2019-05-20T11:15:54.470Z,101228.06
2019-05-20T11:18:26.448Z,101225.88
2019-05-20T11:20:57.991Z,101228.05
2019-05-20T11:23:30.014Z,101213.55
2019-05-20T11:26:01.520Z,101223.73
2019-05-20T11:28:33.169Z,101221.86
2019-05-20T11:31:04.808Z,101221.52
2019-05-20T11:33:36.493Z,101219.25
2019-05-20T11:36:08.958Z,101212.91
2019-05-20T11:38:40.801Z,101202.41
2019-05-20T11:41:12.782Z,101203.73
2019-05-20T11:43:44.312Z,101203.26
2019-05-20T11:46:16.311Z,101214.92
2019-05-20T11:48:47.937Z,101220.59
2019-05-20T11:51:21.553Z,101186.28
2019-05-20T11:53:53.305Z,101186.28
2019-05-20T11:56:25.405Z,101199.84
2019-05-20T11:58:57.287Z,101205.41
2019-05-20T12:01:29.919Z,101193.33
2019-05-20T12:04:03.414Z,101195.92
2019-05-20T12:06:38.334Z,101191.75
2019-05-20T12:09:09.512Z,101193.45
2019-05-20T12:11:41.268Z,101194.14
2019-05-20T12:14:24.678Z,101191.80
2019-05-20T12:16:56.578Z,101197.30
2019-05-20T12:19:28.714Z,101186.37
2019-05-20T12:22:00.796Z,101186.75
2019-05-20T12:24:32.616Z,101185.77
2019-05-20T12:27:04.374Z,101182.66
2019-05-20T12:29:36.258Z,101183.99
2019-05-20T12:32:08.820Z,101186.92
2019-05-20T12:34:40.906Z,101192.83
2019-05-20T12:37:13.148Z,101188.25
2019-05-20T12:39:44.809Z,101191.16
2019-05-20T12:42:16.484Z,101190.31
2019-05-20T12:44:48.325Z,101189.48
2019-05-20T12:47:19.884Z,101189.30
2019-05-20T12:49:58.298Z,101186.91
2019-05-20T12:52:30.070Z,101189.48
2019-05-20T12:55:07.960Z,101185.87
2019-05-20T12:57:41.441Z,101192.35
2019-05-20T13:00:26.290Z,101197.78
2019-05-20T13:02:59.579Z,101193.22
2019-05-20T13:05:33.455Z,101188.28
2019-05-20T13:08:05.911Z,101195.44
2019-05-20T13:10:39.078Z,101190.68
2019-05-20T13:13:10.542Z,101193.06
2019-05-20T13:15:42.822Z,101199.15
2019-05-20T13:18:14.462Z,101197.62
2019-05-20T13:20:46.678Z,101194.71
2019-05-20T13:23:23.185Z,101188.23
2019-05-20T13:25:55.727Z,101190.41
2019-05-20T13:28:27.438Z,101190.26
2019-05-20T13:30:59.343Z,101177.58
2019-05-20T13:33:30.962Z,101172.53
2019-05-20T13:36:02.921Z,101179.72
2019-05-20T13:38:34.493Z,101170.50
2019-05-20T13:41:07.605Z,101167.20
2019-05-20T13:43:39.214Z,101175.03
2019-05-20T13:46:10.975Z,101165.95
2019-05-20T13:48:42.991Z,101160.55
2019-05-20T13:51:15.002Z,101158.49
2019-05-20T13:53:47.462Z,101156.06
2019-05-20T13:56:19.548Z,101164.38
2019-05-20T13:59:10.366Z,101159.48
2019-05-20T14:01:42.189Z,101156.38
2019-05-20T14:04:13.851Z,101159.83
2019-05-20T14:06:46.208Z,101166.63
2019-05-20T14:09:19.058Z,101161.81
2019-05-20T14:11:55.396Z,101162.16
2019-05-20T14:14:26.817Z,101166.21
2019-05-20T14:16:58.778Z,101161.12
2019-05-20T14:19:30.674Z,101158.64
2019-05-20T14:22:20.671Z,101153.31
2019-05-20T14:24:52.271Z,101153.62
2019-05-20T14:27:23.967Z,101150.24
2019-05-20T14:29:55.697Z,101144.35
2019-05-20T14:32:27.650Z,101149.44
2019-05-20T14:35:18.662Z,101146.91
2019-05-20T14:37:50.416Z,101149.39
2019-05-20T14:40:22.382Z,101147.64
2019-05-20T14:42:54.141Z,101145.03
2019-05-20T14:45:25.783Z,101147.91
2019-05-20T14:47:57.660Z,101143.12
2019-05-20T14:50:31.091Z,101140.55
2019-05-20T14:53:03.113Z,101140.55
2019-05-20T14:55:42.117Z,101143.41
2019-05-20T14:58:10.134Z,101142.83
2019-05-20T15:00:41.969Z,101132.61
2019-05-20T15:03:34.941Z,101128.98
2019-05-20T15:06:06.673Z,101126.26
2019-05-20T15:08:57.004Z,101131.87
2019-05-20T15:11:38.042Z,101134.34
2019-05-20T15:14:03.922Z,101132.70
2019-05-20T15:16:35.725Z,101121.12
2019-05-20T15:19:07.974Z,101115.99
2019-05-20T15:21:39.915Z,101119.48
2019-05-20T15:24:30.401Z,101090.34
2019-05-20T15:27:02.606Z,101117.20
2019-05-20T15:29:34.629Z,101118.79
2019-05-20T15:32:06.848Z,101112.95
2019-05-20T15:34:39.067Z,101114.27
2019-05-20T15:37:11.693Z,101114.89
2019-05-20T15:39:47.420Z,101104.52
2019-05-20T15:42:20.169Z,101107.40
2019-05-20T15:44:52.572Z,101097.83
2019-05-20T15:47:24.442Z,101096.52
2019-05-20T15:49:59.578Z,101099.23
2019-05-20T15:52:32.929Z,101097.28
2019-05-20T15:55:06.772Z,101099.20
2019-05-20T15:57:41.324Z,101106.81
2019-05-20T16:02:55.482Z,101101.34
2019-05-20T16:05:28.762Z,101108.73
2019-05-20T16:08:23.166Z,101103.27
2019-05-20T16:10:59.952Z,101098.64
2019-05-20T16:13:32.317Z,101087.46
2019-05-20T16:16:04.298Z,101086.25
2019-05-20T16:18:54.398Z,101083.79
2019-05-20T16:21:26.259Z,101081.86
2019-05-20T16:23:57.972Z,101092.66
2019-05-20T16:26:30.231Z,101085.50
2019-05-20T16:29:04.900Z,101084.92
2019-05-20T16:31:36.969Z,101091.84
2019-05-20T16:34:12.533Z,101094.59
2019-05-20T16:36:44.465Z,101101.57
2019-05-20T16:39:23.435Z,101096.47
2019-05-20T16:41:55.652Z,101097.06
2019-05-20T16:44:30.178Z,101095.63
2019-05-20T16:47:06.343Z,101100.32
2019-05-20T16:49:38.112Z,101092.11
2019-05-20T16:52:10.249Z,101090.31
2019-05-20T16:54:42.050Z,101101.11
2019-05-20T16:57:14.232Z,101101.47
2019-05-20T16:59:46.493Z,101093.52
2019-05-20T17:02:20.603Z,101094.94
2019-05-20T17:04:54.267Z,101092.09
2019-05-20T17:07:26.286Z,101089.38
2019-05-20T17:09:58.368Z,101088.72
2019-05-20T17:12:45.861Z,101089.09
2019-05-20T17:15:18.021Z,101089.83
2019-05-20T17:17:50.348Z,101082.58
2019-05-20T17:20:22.030Z,101087.09
2019-05-20T17:23:01.887Z,101092.20
2019-05-20T17:25:37.906Z,101086.86
2019-05-20T17:28:09.814Z,101092.34
2019-05-20T17:30:45.315Z,101091.16
2019-05-20T17:33:17.269Z,101093.02
2019-05-20T17:35:49.183Z,101095.18
2019-05-20T17:41:05.680Z,101098.75
2019-05-20T17:43:38.450Z,101108.00
2019-05-20T17:46:32.660Z,101105.97
2019-05-20T17:49:04.738Z,101108.42
2019-05-20T17:51:38.644Z,101102.09
2019-05-20T17:54:10.805Z,101102.75
2019-05-20T17:56:56.903Z,101110.73
2019-05-20T17:59:28.983Z,101121.06
2019-05-20T18:02:07.825Z,101119.51
2019-05-20T18:04:39.600Z,101122.73
2019-05-20T18:07:11.426Z,101120.77
2019-05-20T18:09:48.461Z,101119.45
2019-05-20T18:12:21.050Z,101117.89
2019-05-20T18:14:54.028Z,101121.91
2019-05-20T18:17:26.230Z,101102.48
2019-05-20T18:19:58.330Z,101126.25
2019-05-20T18:22:51.463Z,101130.19
2019-05-20T18:25:24.623Z,101130.83
2019-05-20T18:28:02.151Z,101128.98
2019-05-20T18:30:34.819Z,101126.42
2019-05-20T18:33:07.647Z,101126.55
2019-05-20T18:35:41.404Z,101132.94
2019-05-20T18:38:14.250Z,101135.25
2019-05-20T18:40:46.874Z,101142.99
2019-05-20T18:43:18.593Z,101140.63
2019-05-20T18:48:33.561Z,101139.03
2019-05-20T18:51:05.913Z,101141.73
2019-05-20T18:53:38.572Z,101146.75
2019-05-20T18:56:10.908Z,101142.46
2019-05-20T18:58:44.515Z,101141.75
2019-05-20T19:01:19.439Z,101150.92
2019-05-20T19:03:57.447Z,101156.55
2019-05-20T19:06:34.482Z,101151.89
2019-05-20T19:09:07.378Z,101161.05
2019-05-20T19:11:39.565Z,101160.68
2019-05-20T19:14:22.806Z,101165.42
2019-05-20T19:16:57.069Z,101163.45
2019-05-20T19:19:30.497Z,101174.20
2019-05-20T19:22:03.750Z,101181.04
2019-05-20T19:28:16.006Z,101183.30
2019-05-20T19:30:47.685Z,101187.94
2019-05-20T19:33:23.014Z,101184.39
2019-05-20T19:35:54.838Z,101191.87
2019-05-20T19:38:35.039Z,101189.28
2019-05-20T19:41:06.019Z,101193.59
2019-05-20T19:44:02.613Z,101202.83
2019-05-20T19:46:35.947Z,101205.14
2019-05-20T19:49:08.255Z,101202.71
2019-05-20T19:51:39.837Z,101204.13
2019-05-20T19:54:27.488Z,101201.06
2019-05-20T19:56:59.098Z,101208.48
2019-05-20T19:59:30.784Z,101210.30
2019-05-20T20:02:16.375Z,101202.95
2019-05-20T20:04:44.699Z,101214.16
2019-05-20T20:07:17.411Z,101212.53
2019-05-20T20:09:49.753Z,101213.69
2019-05-20T20:12:21.481Z,101218.99
2019-05-20T20:14:53.768Z,101214.17
2019-05-20T20:17:26.426Z,101213.80
2019-05-20T20:19:58.626Z,101218.70
2019-05-20T20:22:30.380Z,101215.55
2019-05-20T20:25:02.005Z,101219.07
2019-05-20T20:27:33.933Z,101215.25
2019-05-20T20:30:09.168Z,101219.07
2019-05-20T20:32:40.725Z,101225.12
2019-05-20T20:35:12.284Z,101229.63
2019-05-20T20:37:44.034Z,101228.42
2019-05-20T20:40:15.589Z,101228.11
2019-05-20T20:42:47.255Z,101221.44
2019-05-20T20:45:19.117Z,101219.27
2019-05-20T20:47:50.889Z,101218.77
2019-05-20T20:50:23.116Z,101217.11
2019-05-20T20:52:55.803Z,101226.06
2019-05-20T20:55:27.214Z,101219.14
2019-05-20T20:57:58.733Z,101214.91
2019-05-20T21:00:30.382Z,101219.52
2019-05-20T21:03:01.817Z,101219.91
2019-05-20T21:05:33.913Z,101218.56
2019-05-20T21:08:05.447Z,101228.58
2019-05-20T21:10:37.091Z,101221.21
2019-05-20T21:13:08.897Z,101224.96
2019-05-20T21:15:40.695Z,101221.92
2019-05-20T21:18:12.141Z,101230.15
2019-05-20T21:20:45.335Z,101228.53
2019-05-20T21:23:16.891Z,101222.30
2019-05-20T21:25:48.656Z,101231.03
2019-05-20T21:28:20.117Z,101228.41
2019-05-20T21:30:51.758Z,101226.06
2019-05-20T21:33:23.721Z,101231.91
2019-05-20T21:35:56.517Z,101232.39
2019-05-20T21:38:29.591Z,101225.69
2019-05-20T21:41:01.349Z,101232.98
2019-05-20T21:43:33.936Z,101237.97
2019-05-20T21:46:05.585Z,101231.94
2019-05-20T21:48:37.338Z,101231.75
2019-05-20T21:51:09.199Z,101230.89
2019-05-20T21:53:41.253Z,101222.88
2019-05-20T21:56:13.526Z,101220.25
2019-05-20T21:58:45.095Z,101223.22
2019-05-20T22:01:18.298Z,101217.86
2019-05-20T22:03:52.279Z,101219.33
2019-05-20T22:06:24.035Z,101212.83
2019-05-20T22:08:55.807Z,101219.14
2019-05-20T22:11:27.549Z,101216.79
2019-05-20T22:13:59.315Z,101224.56
2019-05-20T22:16:31.179Z,101220.45
2019-05-20T22:19:02.542Z,101227.73
2019-05-20T22:21:36.125Z,101221.20
2019-05-20T22:24:08.704Z,101226.23
2019-05-20T22:26:40.253Z,101229.81
2019-05-20T22:29:11.899Z,101232.05
2019-05-20T22:31:43.461Z,101237.70
2019-05-20T22:34:15.624Z,101233.55
2019-05-20T22:36:47.694Z,101227.42
2019-05-20T22:39:19.552Z,101238.09
2019-05-20T22:41:52.026Z,101238.19
2019-05-20T22:44:23.373Z,101228.12
2019-05-20T22:46:55.137Z,101227.27
2019-05-20T22:49:26.578Z,101230.37
2019-05-20T22:51:58.544Z,101239.02
2019-05-20T22:54:30.408Z,101231.58
2019-05-20T22:57:01.960Z,101226.70
2019-05-20T22:59:33.817Z,101225.61
2019-05-20T23:02:05.793Z,101224.75
2019-05-20T23:04:37.334Z,101226.16
2019-05-20T23:07:09.295Z,101226.06
2019-05-20T23:09:40.845Z,101225.80
2019-05-20T23:12:12.705Z,101224.69
2019-05-20T23:14:44.567Z,101218.88
2019-05-20T23:17:16.326Z,101231.88
2019-05-20T23:19:48.921Z,101229.97
2019-05-20T23:22:21.171Z,101226.44
2019-05-20T23:24:52.519Z,101219.55
2019-05-20T23:27:24.079Z,101224.30
2019-05-20T23:29:55.730Z,101224.62
2019-05-20T23:32:27.276Z,101222.59
2019-05-20T23:34:58.929Z,101221.86
2019-05-20T23:37:30.939Z,101222.71
2019-05-20T23:40:02.655Z,101224.56
2019-05-20T23:42:34.514Z,101223.86
2019-05-20T23:45:08.830Z,101217.84
2019-05-20T23:47:40.695Z,101220.11
2019-05-20T23:50:12.350Z,101214.94
2019-05-20T23:52:44.519Z,101218.23
2019-05-20T23:55:16.372Z,101218.12
2019-05-20T23:57:48.127Z,101210.68
